Main page
METAR-TAF:

METAR-TAF

Airports :

Doylestown Airport

Doylestown, Pennsylvania, United States

latitude: 40-19-48N, longitude: 075-07-21W, elevation: 394 ft

Current weather observation

The report was made 49 minutes ago, at 18:54 UTC
Wind 12 mph from the South with gusts up to 22 mph, varying between Southeast and South/Southwest
Temperature 75°F
Humidity 61%
Pressure 29.74 in. Hg
Visibility: 10 miles
Scattered clouds at a height of 3500 ft
Broken clouds at a height of 5000 ft
Overcast at a height of 8500 ft

METAR: KDYL 191854Z AUTO 17010G19KT 140V210 10SM SCT035 BKN050 OVC085 24/16 A2974 RMK AO2 RAB1758E13 SLP068 P0002 T02390161

Time: 15:43 (19:43 UTC)


TAF: missing

Weather observations and forecasts of more than 4000 airports (METAR and TAF reports).

The available stations are represented by yellow and red dots on the map.

Hover mouse over dot to see the name of the station.

Then click to see weather observations and forecasts.

To change the map : click on the green buttons with a black cross to zoom in, on the green button with a dash to zoom out, or on the green arrows for adjacent maps.


METAR-TAF: